Time;durP1;ratioP1;P1;durP2;ratioP2;P2;SDS_P1;SDS_P2;PMS_P1;PMS_P2;Temp;Humidity;BMP_temperature;BMP_pressure;BME280_temperature;BME280_humidity;BME280_pressure;Samples;Min_cycle;Max_cycle;Signal;HPM_P1;HPM_P2
2022/03/08 00:02:21;;;;;;;0.30;0.30;;;1.60;60.40;;;;;;4932777;28;20085;-74
2022/03/08 00:04:47;;;;;;;5.43;5.05;;;1.50;60.60;;;;;;4929110;29;20520;-74
2022/03/08 00:07:13;;;;;;;0.28;0.28;;;1.50;61.00;;;;;;4931256;28;20039;-74
2022/03/08 00:09:39;;;;;;;1.73;1.63;;;1.50;61.00;;;;;;4934581;28;20027;-75
2022/03/08 00:12:05;;;;;;;1.23;1.20;;;1.40;61.30;;;;;;4930332;28;20032;-73
2022/03/08 00:14:33;;;;;;;0.40;0.40;;;1.40;62.00;;;;;;4933105;28;20039;-73
2022/03/08 00:16:58;;;;;;;0.32;0.32;;;1.40;62.00;;;;;;4931969;29;20035;-74
2022/03/08 00:19:24;;;;;;;0.40;0.40;;;1.30;62.30;;;;;;4933591;29;20095;-74
2022/03/08 00:21:50;;;;;;;0.20;0.20;;;1.30;62.80;;;;;;4927991;28;20027;-74
2022/03/08 00:24:16;;;;;;;0.10;0.10;;;1.30;63.20;;;;;;4932299;29;20814;-74
2022/03/08 00:26:43;;;;;;;0.10;0.10;;;1.30;63.70;;;;;;4932102;29;20034;-74
2022/03/08 00:29:08;;;;;;;1.00;1.00;;;1.20;63.80;;;;;;4929652;28;20091;-73
2022/03/08 00:31:34;;;;;;;0.22;0.22;;;1.30;64.40;;;;;;4931574;28;20392;-74
2022/03/08 00:34:01;;;;;;;0.40;0.40;;;1.30;64.60;;;;;;4936151;28;20043;-75
2022/03/08 00:36:27;;;;;;;2.90;2.45;;;1.20;65.00;;;;;;4932951;29;20035;-73
2022/03/08 00:38:53;;;;;;;3.30;2.28;;;1.20;65.50;;;;;;4940197;28;20395;-74
2022/03/08 00:41:20;;;;;;;2.28;2.17;;;1.20;66.10;;;;;;4930839;29;20028;-74
2022/03/08 00:43:46;;;;;;;0.73;0.73;;;1.20;65.90;;;;;;4931890;28;20032;-73
2022/03/08 00:46:11;;;;;;;1.35;1.35;;;1.10;66.10;;;;;;4929049;29;20027;-73
2022/03/08 00:48:37;;;;;;;1.10;1.10;;;1.10;67.00;;;;;;4929886;29;20063;-74
2022/03/08 00:51:03;;;;;;;0.30;0.30;;;1.10;67.40;;;;;;4931987;29;20448;-73
2022/03/08 00:53:28;;;;;;;0.20;0.20;;;1.10;68.20;;;;;;4931316;28;20024;-74
2022/03/08 00:55:54;;;;;;;2.50;2.40;;;1.00;68.40;;;;;;4929809;29;20559;-73
2022/03/08 00:58:20;;;;;;;0.13;0.13;;;1.10;68.90;;;;;;4929760;29;20111;-73
2022/03/08 01:00:47;;;;;;;5.55;1.67;;;1.00;69.50;;;;;;4942535;28;20035;-73
2022/03/08 01:03:12;;;;;;;0.10;0.10;;;1.00;69.80;;;;;;4930736;28;20500;-75
2022/03/08 01:05:38;;;;;;;1.20;1.20;;;1.00;69.80;;;;;;4931313;28;20111;-75
2022/03/08 01:08:05;;;;;;;0.85;0.85;;;1.00;70.40;;;;;;4928119;28;20023;-74
2022/03/08 01:10:31;;;;;;;0.10;0.10;;;0.90;70.60;;;;;;4931848;29;20032;-74
2022/03/08 01:12:58;;;;;;;0.10;0.10;;;0.90;71.40;;;;;;4931578;29;20023;-73
2022/03/08 01:15:25;;;;;;;0.10;0.10;;;0.90;71.60;;;;;;4929798;29;20032;-74
2022/03/08 01:17:52;;;;;;;3.65;3.35;;;1.00;72.00;;;;;;4931298;28;20039;-75
2022/03/08 01:20:18;;;;;;;1.40;1.38;;;0.90;71.70;;;;;;4931684;28;20051;-74
2022/03/08 01:22:44;;;;;;;0.10;0.10;;;1.00;73.00;;;;;;4931283;29;20055;-74
2022/03/08 01:25:13;;;;;;;5.07;1.25;;;0.80;72.70;;;;;;4945732;23;20126;-75
2022/03/08 01:27:39;;;;;;;0.10;0.10;;;0.80;72.70;;;;;;4931389;28;20125;-75
2022/03/08 01:30:07;;;;;;;0.10;0.10;;;0.80;72.60;;;;;;4937673;28;20035;-75
2022/03/08 01:32:34;;;;;;;0.50;0.50;;;0.80;73.40;;;;;;4939628;28;20028;-74
2022/03/08 01:35:02;;;;;;;0.32;0.32;;;0.90;73.60;;;;;;4942655;29;20027;-75
2022/03/08 01:37:28;;;;;;;1.08;1.08;;;0.90;74.00;;;;;;4946121;29;20121;-75
2022/03/08 01:39:54;;;;;;;1.67;1.65;;;0.90;73.90;;;;;;4943317;28;20036;-76
2022/03/08 01:42:23;;;;;;;0.20;0.20;;;0.80;74.00;;;;;;4942290;28;20103;-76
2022/03/08 01:44:49;;;;;;;0.10;0.10;;;0.80;75.20;;;;;;4946341;28;20092;-74
2022/03/08 01:47:17;;;;;;;0.10;0.10;;;0.70;75.60;;;;;;4946164;29;20028;-74
2022/03/08 01:49:43;;;;;;;2.25;2.15;;;0.60;76.90;;;;;;4944248;29;20046;-76
2022/03/08 01:52:10;;;;;;;0.10;0.10;;;0.50;77.50;;;;;;4943155;29;20023;-75
2022/03/08 01:54:37;;;;;;;1.85;1.75;;;0.50;78.90;;;;;;4946558;28;20027;-75
2022/03/08 01:57:04;;;;;;;0.30;0.30;;;0.60;79.50;;;;;;4945364;28;20521;-75
2022/03/08 01:59:30;;;;;;;0.60;0.55;;;0.60;79.80;;;;;;4946596;29;20116;-75
2022/03/08 02:01:56;;;;;;;0.30;0.30;;;0.60;79.70;;;;;;4943336;28;20027;-75
2022/03/08 02:04:22;;;;;;;0.10;0.10;;;0.70;79.00;;;;;;4940504;28;20040;-76
2022/03/08 02:06:48;;;;;;;0.40;0.40;;;0.70;79.20;;;;;;4938457;28;20572;-76
2022/03/08 02:09:14;;;;;;;0.20;0.20;;;0.70;79.80;;;;;;4937273;28;20051;-75
2022/03/08 02:11:42;;;;;;;0.13;0.13;;;0.70;80.20;;;;;;4941793;28;20050;-75
2022/03/08 02:14:08;;;;;;;0.38;0.38;;;0.70;80.10;;;;;;4987378;28;20038;-75
2022/03/08 02:16:34;;;;;;;0.10;0.10;;;0.70;80.60;;;;;;4939264;28;20038;-76
2022/03/08 02:19:00;;;;;;;0.10;0.10;;;0.70;81.70;;;;;;4938130;28;20024;-75
2022/03/08 02:21:26;;;;;;;0.40;0.40;;;0.50;81.50;;;;;;4938304;28;20384;-76
2022/03/08 02:23:52;;;;;;;6.75;3.75;;;0.50;82.40;;;;;;4935356;28;20514;-75
2022/03/08 02:26:20;;;;;;;0.10;0.10;;;0.40;82.60;;;;;;4935234;28;20032;-75
2022/03/08 02:28:46;;;;;;;0.10;0.10;;;0.40;83.70;;;;;;4939496;28;20030;-75
2022/03/08 02:31:12;;;;;;;0.10;0.10;;;0.40;85.90;;;;;;4938066;28;20024;-75
2022/03/08 02:33:38;;;;;;;0.10;0.10;;;0.50;86.40;;;;;;4937162;28;20517;-75
2022/03/08 02:36:06;;;;;;;0.10;0.10;;;0.50;86.80;;;;;;4938791;28;20108;-75
2022/03/08 02:38:32;;;;;;;0.10;0.10;;;0.50;87.40;;;;;;4938452;28;20027;-75
2022/03/08 02:40:58;;;;;;;0.73;0.73;;;0.40;87.80;;;;;;4938126;28;20533;-75
2022/03/08 02:43:23;;;;;;;0.10;0.10;;;0.40;89.00;;;;;;4938385;28;20072;-75
2022/03/08 02:45:49;;;;;;;0.20;0.20;;;0.30;90.00;;;;;;4934351;29;20548;-75
2022/03/08 02:48:15;;;;;;;0.55;0.55;;;0.20;91.00;;;;;;4937728;29;20473;-76
2022/03/08 02:50:41;;;;;;;0.10;0.10;;;0.30;91.60;;;;;;4941216;29;20476;-76
2022/03/08 02:53:07;;;;;;;0.10;0.10;;;0.20;92.20;;;;;;4940679;29;20445;-75
2022/03/08 02:55:35;;;;;;;0.10;0.10;;;0.20;93.00;;;;;;4939820;28;20027;-75
2022/03/08 02:58:02;;;;;;;0.35;0.35;;;0.20;93.10;;;;;;4939730;28;20059;-75
2022/03/08 03:00:29;;;;;;;3.45;3.15;;;0.10;93.90;;;;;;4940819;28;20460;-76
2022/03/08 03:02:56;;;;;;;0.13;0.13;;;0.10;94.80;;;;;;4941385;28;20107;-76
2022/03/08 03:05:21;;;;;;;0.68;0.68;;;0.20;95.80;;;;;;4940935;28;20024;-76
2022/03/08 03:07:47;;;;;;;0.50;0.50;;;0.20;95.50;;;;;;4940798;28;20031;-76
2022/03/08 03:10:16;;;;;;;0.20;0.20;;;0.20;95.90;;;;;;4939231;28;20046;-76
2022/03/08 03:12:42;;;;;;;0.10;0.10;;;0.20;96.10;;;;;;4939093;28;20106;-75
2022/03/08 03:15:10;;;;;;;0.10;0.10;;;0.10;95.70;;;;;;4939939;29;20154;-74
2022/03/08 03:17:36;;;;;;;0.10;0.10;;;0.10;96.60;;;;;;4940285;29;20028;-75
2022/03/08 03:20:07;;;;;;;0.10;0.10;;;0.10;97.00;;;;;;4962231;28;20038;-75
2022/03/08 03:22:33;;;;;;;0.52;0.52;;;0.00;96.90;;;;;;4935532;29;20023;-75
2022/03/08 03:24:59;;;;;;;0.13;0.13;;;0.00;98.20;;;;;;4940751;28;20070;-74
2022/03/08 03:27:25;;;;;;;0.10;0.10;;;0.00;98.30;;;;;;4941478;28;20027;-75
2022/03/08 03:29:51;;;;;;;0.35;0.35;;;0.10;98.40;;;;;;4941097;28;20443;-75
2022/03/08 03:32:16;;;;;;;0.40;0.40;;;0.10;98.00;;;;;;4940984;29;20477;-76
2022/03/08 03:34:42;;;;;;;1.55;1.30;;;0.10;98.40;;;;;;4935653;28;20036;-76
2022/03/08 03:37:08;;;;;;;0.10;0.10;;;0.10;98.50;;;;;;4945854;29;20031;-75
2022/03/08 03:39:33;;;;;;;0.75;0.75;;;0.10;98.40;;;;;;4936473;28;20104;-76
2022/03/08 03:41:59;;;;;;;0.20;0.20;;;0.00;98.60;;;;;;4938579;28;20039;-76
2022/03/08 03:44:25;;;;;;;0.10;0.10;;;0.00;99.40;;;;;;4934573;28;20551;-76
2022/03/08 03:46:51;;;;;;;0.10;0.10;;;0.10;99.10;;;;;;4939005;28;20054;-77
2022/03/08 03:49:16;;;;;;;5.32;3.83;;;0.10;99.10;;;;;;4942546;28;20024;-75
2022/03/08 03:51:42;;;;;;;0.10;0.10;;;0.10;99.90;;;;;;4945693;28;20020;-76
2022/03/08 03:54:08;;;;;;;0.10;0.10;;;0.20;99.70;;;;;;4938127;28;20024;-76
2022/03/08 03:56:34;;;;;;;0.10;0.10;;;0.10;99.30;;;;;;4938628;29;20515;-76
2022/03/08 03:59:00;;;;;;;10.55;2.00;;;0.20;99.90;;;;;;4939845;28;20034;-76
2022/03/08 04:01:26;;;;;;;0.13;0.13;;;0.10;99.90;;;;;;4936995;29;20036;-75
2022/03/08 04:03:51;;;;;;;0.10;0.10;;;0.00;99.90;;;;;;4938213;28;20371;-75
2022/03/08 04:06:17;;;;;;;0.20;0.20;;;0.00;99.90;;;;;;4938839;29;20418;-75
2022/03/08 04:08:43;;;;;;;1.65;1.35;;;0.00;99.90;;;;;;4938415;29;20039;-76
2022/03/08 04:11:09;;;;;;;3.85;3.55;;;0.00;99.90;;;;;;4936866;28;20032;-75
2022/03/08 04:13:35;;;;;;;1.95;1.85;;;0.10;99.90;;;;;;4937012;28;20024;-75
2022/03/08 04:16:01;;;;;;;0.10;0.10;;;0.00;99.90;;;;;;4939781;28;20440;-75
2022/03/08 04:18:26;;;;;;;0.15;0.15;;;0.00;99.90;;;;;;4932816;28;20046;-75
2022/03/08 04:20:52;;;;;;;0.10;0.10;;;0.10;99.90;;;;;;4933970;28;20043;-76
2022/03/08 04:23:18;;;;;;;0.10;0.10;;;0.10;99.00;;;;;;4939575;28;20739;-76
2022/03/08 04:25:44;;;;;;;1.33;1.25;;;0.10;98.00;;;;;;4939664;28;20050;-76
2022/03/08 04:28:10;;;;;;;0.10;0.10;;;0.00;97.90;;;;;;4937531;29;20034;-76
2022/03/08 04:30:36;;;;;;;0.75;0.75;;;0.20;98.00;;;;;;4968397;28;20494;-75
2022/03/08 04:33:01;;;;;;;0.10;0.10;;;0.00;98.10;;;;;;4952390;28;20138;-75
2022/03/08 04:35:27;;;;;;;6.13;1.88;;;0.00;98.00;;;;;;4939683;28;20161;-76
2022/03/08 04:37:53;;;;;;;0.10;0.10;;;-0.10;98.20;;;;;;4945728;28;20476;-75
2022/03/08 04:40:19;;;;;;;0.10;0.10;;;-0.10;98.90;;;;;;4941730;29;20439;-75
2022/03/08 04:42:46;;;;;;;0.10;0.10;;;-0.10;99.40;;;;;;4943840;28;20027;-75
2022/03/08 04:45:13;;;;;;;0.10;0.10;;;-0.20;99.90;;;;;;4942534;28;20148;-76
2022/03/08 04:47:39;;;;;;;0.10;0.10;;;-0.10;99.90;;;;;;4936833;28;20020;-76
2022/03/08 04:50:10;;;;;;;2.83;2.60;;;-0.10;99.90;;;;;;4942440;29;20038;-75
2022/03/08 04:52:36;;;;;;;0.10;0.10;;;0.00;99.90;;;;;;4939063;28;20028;-75
2022/03/08 04:55:03;;;;;;;0.32;0.32;;;-0.10;99.90;;;;;;4946012;28;20103;-76
2022/03/08 04:57:29;;;;;;;0.50;0.50;;;-0.20;99.90;;;;;;4940918;29;20027;-75
2022/03/08 04:59:54;;;;;;;6.65;2.45;;;-0.10;99.90;;;;;;4936267;29;20406;-75
2022/03/08 05:02:20;;;;;;;1.23;1.13;;;-0.40;99.90;;;;;;4937644;28;20027;-75
2022/03/08 05:04:46;;;;;;;0.10;0.10;;;-0.40;99.90;;;;;;4941246;29;20110;-74
2022/03/08 05:07:12;;;;;;;0.10;0.10;;;-0.50;99.90;;;;;;4942142;29;20023;-75
2022/03/08 05:09:38;;;;;;;0.20;0.20;;;-0.50;99.90;;;;;;4943413;28;20027;-75
2022/03/08 05:12:04;;;;;;;0.10;0.10;;;-0.40;99.90;;;;;;4948378;29;20397;-74
2022/03/08 05:14:31;;;;;;;3.38;3.05;;;-0.50;99.90;;;;;;4937536;29;20070;-75
2022/03/08 05:16:57;;;;;;;0.35;0.35;;;-0.30;99.90;;;;;;4949459;29;20023;-75
2022/03/08 05:19:23;;;;;;;7.65;6.97;;;-0.40;99.90;;;;;;4942835;28;20031;-75
2022/03/08 05:21:49;;;;;;;0.10;0.10;;;-0.30;99.90;;;;;;4938100;28;20529;-76
2022/03/08 05:24:14;;;;;;;0.10;0.10;;;-0.30;99.90;;;;;;4938848;28;20425;-75
2022/03/08 05:26:40;;;;;;;0.10;0.10;;;-0.20;99.90;;;;;;4940929;29;20404;-74
2022/03/08 05:29:07;;;;;;;0.10;0.10;;;-0.20;99.90;;;;;;4940274;28;20117;-76
2022/03/08 05:31:34;;;;;;;0.10;0.10;;;-0.20;99.90;;;;;;4939898;28;20020;-75
2022/03/08 05:34:00;;;;;;;0.30;0.30;;;-0.20;99.90;;;;;;4940262;29;20047;-77
2022/03/08 05:36:26;;;;;;;0.93;0.93;;;-0.20;99.90;;;;;;4936251;28;20449;-77
2022/03/08 05:38:52;;;;;;;0.10;0.10;;;-0.20;99.90;;;;;;4939273;28;20035;-76
2022/03/08 05:41:18;;;;;;;0.10;0.10;;;-0.20;99.90;;;;;;4964403;28;20021;-76
2022/03/08 05:43:45;;;;;;;0.10;0.10;;;0.00;99.90;;;;;;4967057;28;20027;-75
2022/03/08 05:46:11;;;;;;;0.45;0.45;;;-0.20;99.90;;;;;;4937372;28;20032;-76
2022/03/08 05:48:36;;;;;;;0.10;0.10;;;-0.10;99.90;;;;;;4940761;29;20027;-75
2022/03/08 05:51:03;;;;;;;0.10;0.10;;;-0.10;99.90;;;;;;4942512;28;20028;-77
2022/03/08 05:53:29;;;;;;;1.55;1.50;;;-0.20;99.90;;;;;;4942374;28;20052;-76
2022/03/08 05:55:55;;;;;;;0.10;0.10;;;-0.40;99.90;;;;;;4941716;29;20097;-75
2022/03/08 05:58:20;;;;;;;0.10;0.10;;;-0.40;99.90;;;;;;4942180;28;20039;-76
2022/03/08 06:00:46;;;;;;;0.10;0.10;;;-0.40;99.90;;;;;;4944625;28;20027;-75
2022/03/08 06:03:12;;;;;;;1.60;1.60;;;-0.40;99.90;;;;;;4948374;29;20095;-75
2022/03/08 06:05:38;;;;;;;0.22;0.22;;;-0.30;99.90;;;;;;4941927;29;20123;-75
2022/03/08 06:08:04;;;;;;;0.10;0.10;;;-0.30;99.90;;;;;;4939608;28;20476;-75
2022/03/08 06:10:31;;;;;;;0.10;0.10;;;-0.20;99.90;;;;;;4940991;28;20026;-76
2022/03/08 06:12:56;;;;;;;0.30;0.30;;;-0.20;99.90;;;;;;4940742;29;20028;-76
2022/03/08 06:15:22;;;;;;;1.00;1.00;;;-0.20;99.90;;;;;;4938006;28;20106;-74
2022/03/08 06:17:48;;;;;;;2.67;2.50;;;-0.10;99.90;;;;;;4937706;29;20023;-75
2022/03/08 06:20:14;;;;;;;0.10;0.10;;;-0.10;99.90;;;;;;4940568;28;20054;-77
2022/03/08 06:22:40;;;;;;;0.82;0.82;;;-0.10;99.90;;;;;;4936547;29;20053;-75
2022/03/08 06:25:06;;;;;;;0.10;0.10;;;-0.20;99.90;;;;;;4939479;28;20062;-77
2022/03/08 06:27:32;;;;;;;0.10;0.10;;;-0.10;99.90;;;;;;4939504;28;20024;-75
2022/03/08 06:29:58;;;;;;;0.10;0.10;;;-0.20;99.90;;;;;;4932812;28;20379;-75
2022/03/08 06:32:24;;;;;;;0.20;0.20;;;-0.20;99.90;;;;;;4958245;28;20050;-76
2022/03/08 06:34:53;;;;;;;0.73;0.73;;;-0.20;99.90;;;;;;4938408;28;20111;-77
2022/03/08 06:37:19;;;;;;;0.10;0.10;;;-0.20;99.90;;;;;;4939013;29;20512;-77
2022/03/08 06:39:48;;;;;;;2.05;1.95;;;-0.20;99.90;;;;;;4938000;29;20051;-75
2022/03/08 06:42:14;;;;;;;0.40;0.40;;;-0.10;99.90;;;;;;4939763;28;20512;-77
2022/03/08 06:44:40;;;;;;;0.45;0.45;;;-0.20;99.90;;;;;;4936701;28;20036;-77
2022/03/08 06:47:07;;;;;;;0.90;0.90;;;-0.20;99.90;;;;;;4937736;28;20039;-78
2022/03/08 06:49:33;;;;;;;0.63;0.63;;;-0.20;99.90;;;;;;4941346;28;20107;-76
2022/03/08 06:51:59;;;;;;;0.10;0.10;;;-0.20;99.90;;;;;;4972071;28;20035;-75
2022/03/08 06:54:25;;;;;;;0.25;0.25;;;-0.20;99.90;;;;;;4953948;28;20050;-74
2022/03/08 06:56:51;;;;;;;0.10;0.10;;;-0.20;99.90;;;;;;4940728;28;20580;-75
2022/03/08 06:59:17;;;;;;;0.10;0.10;;;-0.10;99.90;;;;;;4941496;28;20039;-74
2022/03/08 07:01:43;;;;;;;0.10;0.10;;;0.00;99.90;;;;;;4940296;28;20180;-75
2022/03/08 07:04:08;;;;;;;1.65;1.55;;;0.00;99.90;;;;;;4944115;28;20548;-74
2022/03/08 07:06:34;;;;;;;0.10;0.10;;;0.10;99.90;;;;;;4947293;28;20043;-75
2022/03/08 07:09:00;;;;;;;0.20;0.20;;;0.20;99.90;;;;;;4945132;29;20016;-76
2022/03/08 07:11:26;;;;;;;0.20;0.20;;;0.30;99.90;;;;;;4943695;28;20031;-76
2022/03/08 07:13:51;;;;;;;0.63;0.63;;;0.30;99.90;;;;;;4933883;29;20422;-76
2022/03/08 07:16:18;;;;;;;0.10;0.10;;;0.40;99.90;;;;;;4935362;28;20067;-76
2022/03/08 07:18:44;;;;;;;4.60;3.58;;;0.40;99.90;;;;;;4944435;29;20035;-76
2022/03/08 07:21:10;;;;;;;1.95;1.85;;;0.40;99.90;;;;;;4944016;29;20028;-76
2022/03/08 07:23:38;;;;;;;1.20;1.20;;;0.40;99.90;;;;;;4939771;28;20474;-78
2022/03/08 07:26:04;;;;;;;0.20;0.20;;;0.40;99.90;;;;;;4941098;28;20026;-77
2022/03/08 07:28:30;;;;;;;0.20;0.20;;;0.50;99.90;;;;;;4944914;28;20019;-74
2022/03/08 07:31:00;;;;;;;0.10;0.10;;;0.50;99.90;;;;;;4942730;28;20543;-77
2022/03/08 07:33:28;;;;;;;1.95;1.85;;;0.50;99.90;;;;;;5032102;23;20073;-74
2022/03/08 07:35:54;;;;;;;0.20;0.20;;;0.60;99.90;;;;;;5033594;28;20030;-76
2022/03/08 07:38:19;;;;;;;0.15;0.15;;;0.70;99.90;;;;;;5039204;28;20521;-75
2022/03/08 07:40:45;;;;;;;0.30;0.30;;;0.70;99.90;;;;;;5027896;28;20529;-74
2022/03/08 07:43:11;;;;;;;1.65;1.55;;;0.80;99.90;;;;;;5035035;28;20039;-72
2022/03/08 07:45:37;;;;;;;0.95;0.95;;;0.90;99.90;;;;;;5028191;28;20057;-73
2022/03/08 07:48:07;;;;;;;5.78;3.72;;;1.00;99.90;;;;;;5032830;28;20479;-77
2022/03/08 07:50:35;;;;;;;0.10;0.10;;;1.00;99.90;;;;;;5031723;28;20029;-76
2022/03/08 07:53:01;;;;;;;0.10;0.10;;;1.10;98.90;;;;;;5040244;28;20029;-75
2022/03/08 07:55:29;;;;;;;0.10;0.10;;;1.30;98.60;;;;;;5040776;28;20109;-74
2022/03/08 07:57:56;;;;;;;0.10;0.10;;;1.30;98.00;;;;;;5026042;28;20022;-75
2022/03/08 08:00:22;;;;;;;0.30;0.30;;;1.50;97.80;;;;;;5040790;28;20025;-76
2022/03/08 08:02:48;;;;;;;0.20;0.20;;;1.50;96.90;;;;;;5042697;28;20035;-75
2022/03/08 08:05:14;;;;;;;0.20;0.20;;;1.70;97.20;;;;;;5029624;28;20021;-74
2022/03/08 08:07:40;;;;;;;0.90;0.90;;;1.70;96.60;;;;;;5039759;28;20501;-74
2022/03/08 08:10:06;;;;;;;2.75;2.50;;;1.80;96.70;;;;;;5038831;28;20037;-76
2022/03/08 08:12:32;;;;;;;3.00;2.83;;;1.90;95.60;;;;;;5014779;28;20378;-74
2022/03/08 08:14:58;;;;;;;0.10;0.10;;;2.00;94.50;;;;;;5036416;28;20033;-76
2022/03/08 08:17:23;;;;;;;0.10;0.10;;;1.40;93.70;;;;;;5044772;28;20545;-75
2022/03/08 08:19:49;;;;;;;0.10;0.10;;;2.30;93.80;;;;;;5044432;28;20033;-74
2022/03/08 08:22:15;;;;;;;1.85;1.70;;;2.30;93.20;;;;;;5044497;28;20059;-76
2022/03/08 08:24:41;;;;;;;1.48;1.48;;;2.40;92.40;;;;;;5041065;28;20402;-77
2022/03/08 08:27:07;;;;;;;1.60;1.55;;;2.50;92.20;;;;;;5041873;28;20071;-76
2022/03/08 08:29:33;;;;;;;11.50;6.32;;;2.60;92.00;;;;;;5023785;28;20549;-75
2022/03/08 08:31:59;;;;;;;0.13;0.13;;;2.80;92.20;;;;;;5037468;28;20025;-76
2022/03/08 08:34:25;;;;;;;2.00;1.83;;;2.80;91.60;;;;;;5023089;28;20486;-75
2022/03/08 08:36:52;;;;;;;0.35;0.35;;;3.00;91.00;;;;;;5039968;28;20021;-74
2022/03/08 08:39:17;;;;;;;8.98;2.92;;;3.10;91.10;;;;;;5040253;28;20470;-73
2022/03/08 08:41:44;;;;;;;0.47;0.47;;;3.10;90.20;;;;;;5042713;28;20108;-76
2022/03/08 08:44:11;;;;;;;0.40;0.40;;;3.20;90.00;;;;;;5040047;28;20049;-76
2022/03/08 08:46:37;;;;;;;0.10;0.10;;;3.30;88.00;;;;;;5044854;28;20061;-75
2022/03/08 08:49:04;;;;;;;0.90;0.88;;;3.50;87.20;;;;;;5042550;28;20021;-75
2022/03/08 08:51:30;;;;;;;0.10;0.10;;;3.60;86.30;;;;;;5035599;28;20021;-76
2022/03/08 08:53:56;;;;;;;0.17;0.17;;;3.80;85.00;;;;;;5037359;28;20030;-76
2022/03/08 08:56:22;;;;;;;0.20;0.20;;;4.00;84.10;;;;;;5033045;28;20021;-74
2022/03/08 08:58:48;;;;;;;0.10;0.10;;;4.00;82.30;;;;;;5029517;28;20072;-74
2022/03/08 09:01:14;;;;;;;0.10;0.10;;;4.10;82.00;;;;;;5035626;28;20068;-74
2022/03/08 09:03:41;;;;;;;0.10;0.10;;;4.20;82.60;;;;;;5025474;28;20024;-73
2022/03/08 09:06:07;;;;;;;0.10;0.10;;;4.30;79.70;;;;;;5038351;28;20032;-73
2022/03/08 09:08:33;;;;;;;0.10;0.10;;;4.40;79.00;;;;;;5030691;28;20021;-73
2022/03/08 09:11:00;;;;;;;0.10;0.10;;;4.40;77.60;;;;;;5036775;28;20386;-73
2022/03/08 09:13:26;;;;;;;0.20;0.20;;;4.40;77.20;;;;;;5028997;28;20040;-73
2022/03/08 09:15:53;;;;;;;0.10;0.10;;;4.50;76.80;;;;;;5042275;28;20009;-73
2022/03/08 09:18:19;;;;;;;0.10;0.10;;;4.60;75.60;;;;;;5037602;28;20478;-73
2022/03/08 09:20:45;;;;;;;0.10;0.10;;;4.70;75.10;;;;;;5037937;28;20021;-75
2022/03/08 09:23:11;;;;;;;0.20;0.20;;;4.80;75.00;;;;;;5038459;28;20022;-73
2022/03/08 09:25:37;;;;;;;0.17;0.17;;;4.90;73.90;;;;;;5035879;28;20068;-73
2022/03/08 09:28:05;;;;;;;0.10;0.10;;;5.00;73.40;;;;;;5037290;28;20045;-73
2022/03/08 09:30:32;;;;;;;0.13;0.13;;;5.10;72.50;;;;;;5033477;28;20025;-73
2022/03/08 09:33:00;;;;;;;0.10;0.10;;;5.10;71.70;;;;;;5037495;28;20590;-73
2022/03/08 09:35:26;;;;;;;0.10;0.10;;;5.20;70.00;;;;;;5034238;28;20102;-74
2022/03/08 09:37:54;;;;;;;0.10;0.10;;;5.20;69.00;;;;;;5010471;28;20459;-73
2022/03/08 09:40:20;;;;;;;0.30;0.30;;;5.20;68.00;;;;;;5038329;28;20065;-73
2022/03/08 09:42:48;;;;;;;0.22;0.22;;;5.20;67.50;;;;;;5029233;28;20087;-75
2022/03/08 09:45:14;;;;;;;0.10;0.10;;;5.30;67.10;;;;;;5030724;28;20033;-74
2022/03/08 09:47:41;;;;;;;0.10;0.10;;;5.30;65.70;;;;;;5038675;28;20018;-73
2022/03/08 09:50:09;;;;;;;0.15;0.15;;;5.40;65.40;;;;;;5036797;28;20026;-70
2022/03/08 09:52:38;;;;;;;0.10;0.10;;;5.50;66.90;;;;;;5032244;28;20511;-74
2022/03/08 09:55:06;;;;;;;0.10;0.10;;;6.20;68.70;;;;;;5043437;28;20021;-74
2022/03/08 09:57:33;;;;;;;0.10;0.10;;;6.20;63.80;;;;;;5037512;28;20017;-73
2022/03/08 09:59:58;;;;;;;0.80;0.80;;;6.10;62.20;;;;;;5036876;28;20083;-71
2022/03/08 10:02:25;;;;;;;0.10;0.10;;;6.00;61.30;;;;;;5033600;28;20033;-75
2022/03/08 10:05:07;;;;;;;0.35;0.35;;;5.90;61.60;;;;;;5035641;28;20116;-72
2022/03/08 10:07:33;;;;;;;0.20;0.20;;;6.10;60.90;;;;;;5013757;28;20386;-76
2022/03/08 10:10:00;;;;;;;0.10;0.10;;;6.10;60.10;;;;;;5037319;28;20025;-74
2022/03/08 10:12:28;;;;;;;0.10;0.10;;;6.20;60.10;;;;;;5034155;28;20068;-74
2022/03/08 10:14:54;;;;;;;0.13;0.13;;;6.20;59.70;;;;;;5037107;28;20017;-74
2022/03/08 10:17:38;;;;;;;0.10;0.10;;;6.20;59.00;;;;;;5038829;28;20167;-73
2022/03/08 10:20:07;;;;;;;0.10;0.10;;;6.30;58.30;;;;;;5025509;28;20079;-74
2022/03/08 10:22:36;;;;;;;0.10;0.10;;;6.30;57.60;;;;;;5023196;28;20025;-76
2022/03/08 10:25:14;;;;;;;0.10;0.10;;;6.30;57.60;;;;;;5027587;28;20040;-75
2022/03/08 10:27:52;;;;;;;1.05;1.05;;;6.40;56.90;;;;;;5029118;28;20093;-75
2022/03/08 10:30:18;;;;;;;8.10;1.98;;;6.50;56.50;;;;;;5027687;28;20084;-75
2022/03/08 10:32:46;;;;;;;0.10;0.10;;;6.60;56.40;;;;;;5021401;28;20406;-75
2022/03/08 10:35:25;;;;;;;0.30;0.30;;;6.60;55.90;;;;;;5040528;28;20060;-76
2022/03/08 10:37:51;;;;;;;0.10;0.10;;;6.70;55.30;;;;;;5033323;28;20029;-78
2022/03/08 10:40:32;;;;;;;0.10;0.10;;;6.80;54.50;;;;;;5033003;28;20044;-75
2022/03/08 10:43:16;;;;;;;0.10;0.10;;;6.70;54.10;;;;;;5022475;28;20483;-79
2022/03/08 10:45:50;;;;;;;0.20;0.20;;;6.80;53.90;;;;;;5036314;28;20025;-77
2022/03/08 10:48:18;;;;;;;0.10;0.10;;;6.80;52.90;;;;;;5040519;28;20022;-77
2022/03/08 10:50:49;;;;;;;0.10;0.10;;;6.90;52.70;;;;;;5036008;28;20463;-76
2022/03/08 10:53:14;;;;;;;0.10;0.10;;;6.90;52.10;;;;;;5039546;28;20036;-75
2022/03/08 10:55:50;;;;;;;0.10;0.10;;;6.80;51.40;;;;;;5036864;28;20079;-74
2022/03/08 10:58:17;;;;;;;0.17;0.17;;;6.90;51.40;;;;;;5031649;28;20078;-74
2022/03/08 11:01:01;;;;;;;0.20;0.20;;;6.90;51.60;;;;;;5028819;28;20022;-78
2022/03/08 11:03:27;;;;;;;0.10;0.10;;;7.10;50.70;;;;;;5037184;28;20025;-75
2022/03/08 11:05:55;;;;;;;0.10;0.10;;;7.20;50.80;;;;;;5040078;28;20028;-74
2022/03/08 11:08:22;;;;;;;0.10;0.10;;;7.20;50.40;;;;;;5029294;28;20174;-75
2022/03/08 11:10:48;;;;;;;0.10;0.10;;;7.20;50.80;;;;;;5040042;28;20086;-75
2022/03/08 11:13:16;;;;;;;0.10;0.10;;;7.20;49.70;;;;;;5034742;28;20021;-76
2022/03/08 11:15:45;;;;;;;0.20;0.20;;;7.30;49.20;;;;;;5026060;28;20025;-75
2022/03/08 11:18:13;;;;;;;0.10;0.10;;;7.30;49.00;;;;;;5035862;28;20037;-76
2022/03/08 11:20:40;;;;;;;0.20;0.20;;;7.40;48.10;;;;;;5043858;28;20131;-76
2022/03/08 11:23:06;;;;;;;0.10;0.10;;;7.50;47.70;;;;;;5038459;28;20029;-78
2022/03/08 11:25:38;;;;;;;0.10;0.10;;;8.20;48.30;;;;;;5037987;28;20494;-76
2022/03/08 11:28:05;;;;;;;0.10;0.10;;;7.70;47.50;;;;;;5036721;28;20033;-78
2022/03/08 11:30:47;;;;;;;0.20;0.20;;;7.70;47.70;;;;;;5037157;28;20044;-75
2022/03/08 11:33:29;;;;;;;1.75;1.65;;;7.80;46.90;;;;;;5029354;28;20029;-77
2022/03/08 11:36:00;;;;;;;0.10;0.10;;;7.80;46.60;;;;;;5027664;28;20055;-76
2022/03/08 11:38:26;;;;;;;0.10;0.10;;;7.80;46.30;;;;;;5031084;28;20517;-75
2022/03/08 11:40:54;;;;;;;2.20;2.05;;;7.70;46.10;;;;;;5041041;28;20033;-76
2022/03/08 11:43:21;;;;;;;2.03;1.30;;;7.80;45.80;;;;;;5039645;28;20025;-72
2022/03/08 11:45:48;;;;;;;0.10;0.10;;;7.80;45.70;;;;;;5033140;28;20414;-74
2022/03/08 11:48:20;;;;;;;0.10;0.10;;;8.00;46.00;;;;;;5017501;28;20141;-74
2022/03/08 11:50:46;;;;;;;0.10;0.10;;;8.10;45.20;;;;;;5036014;28;20026;-76
2022/03/08 11:53:23;;;;;;;0.10;0.10;;;8.00;44.60;;;;;;5016221;28;20029;-75
2022/03/08 11:55:56;;;;;;;0.20;0.20;;;8.10;44.90;;;;;;5018027;28;20055;-74
2022/03/08 11:58:47;;;;;;;0.10;0.10;;;8.20;44.30;;;;;;5034924;28;20029;-73
2022/03/08 12:01:28;;;;;;;0.10;0.10;;;8.20;44.40;;;;;;5035632;28;20279;-72
2022/03/08 12:03:57;;;;;;;0.10;0.10;;;8.30;44.10;;;;;;5033052;28;20540;-72
2022/03/08 12:06:35;;;;;;;0.10;0.10;;;8.20;44.20;;;;;;5020560;28;20384;-76
2022/03/08 12:09:22;;;;;;;0.10;0.10;;;8.10;44.00;;;;;;5037617;28;20420;-71
2022/03/08 12:11:52;;;;;;;0.10;0.10;;;8.10;44.00;;;;;;5034304;28;20135;-72
2022/03/08 12:14:27;;;;;;;0.10;0.10;;;9.00;45.20;;;;;;5034100;28;20028;-73
2022/03/08 12:17:15;;;;;;;1.80;1.73;;;8.30;44.60;;;;;;5032505;28;20131;-73
2022/03/08 12:19:44;;;;;;;0.10;0.10;;;8.40;44.30;;;;;;5038613;28;20031;-77
2022/03/08 12:22:18;;;;;;;0.10;0.10;;;8.20;44.30;;;;;;5022679;28;20029;-72
2022/03/08 12:24:55;;;;;;;1.20;1.20;;;8.30;44.10;;;;;;5038617;28;20018;-72
2022/03/08 12:27:23;;;;;;;0.10;0.10;;;8.30;44.10;;;;;;5039289;28;20032;-75
2022/03/08 12:29:56;;;;;;;0.50;0.50;;;8.40;43.90;;;;;;5043292;28;20025;-70
2022/03/08 12:32:33;;;;;;;0.10;0.10;;;8.40;44.10;;;;;;5029191;28;20483;-75
2022/03/08 12:35:22;;;;;;;0.10;0.10;;;8.40;43.80;;;;;;5030642;28;20055;-76
2022/03/08 12:37:57;;;;;;;0.20;0.20;;;8.40;43.70;;;;;;5036492;28;20067;-73
2022/03/08 12:40:26;;;;;;;0.10;0.10;;;8.50;43.40;;;;;;5036215;28;20029;-74
2022/03/08 12:42:56;;;;;;;0.75;0.75;;;8.60;43.70;;;;;;5035697;28;20030;-72
2022/03/08 12:45:26;;;;;;;0.25;0.25;;;8.60;43.00;;;;;;5033467;28;20036;-76
2022/03/08 12:48:06;;;;;;;0.10;0.10;;;8.80;42.90;;;;;;5029938;28;20032;-71
2022/03/08 12:50:43;;;;;;;0.20;0.20;;;8.50;43.40;;;;;;5035941;28;20021;-74
2022/03/08 12:53:13;;;;;;;0.10;0.10;;;8.50;43.60;;;;;;5036393;28;20033;-71
2022/03/08 12:55:41;;;;;;;0.10;0.10;;;8.50;43.40;;;;;;5037144;28;20088;-73
2022/03/08 12:58:08;;;;;;;0.10;0.10;;;8.50;43.30;;;;;;5036381;28;20091;-72